ORER/EBL METAR and TAF weather

Enter ICAO airport designator
Station Type Date Time Source
ORER METAR 2022/07/03 14:00 UTC NOAA

ORER 031400Z 03010KT FEW045 41/04 Q0998


Station Type Date Time Source
ORER Decoded METAR 2022/07/03 14:00 UTC NOAA

Station name not available
Jul 03, 2022 - 10:00 AM EDT / 2022.07.03 1400 UTC
Wind: from the NNE (030 degrees) at 12 MPH (10 KT):0
Sky conditions: mostly clear
Temperature: 105 F (41 C)
Dew Point: 39 F (4 C)
Relative Humidity: 10%
Pressure (altimeter): 29.47 in. Hg (0998 hPa)
ob: ORER 031400Z 03010KT FEW045 41/04 Q0998
cycle: 14

Station Type Date Time Source
ORER TAF 2022/07/03 12:49 UTC NOAA

TAF ORER 031000Z 0312/0412 04008KT 7000 NSC PROB30 0312/0317 G20KT
BECMG 0406/0408 33008KT

Example: see airport list